Time;durP1;ratioP1;P1;durP2;ratioP2;P2;SDS_P1;SDS_P2;PMS_P1;PMS_P2;Temp;Humidity;BMP_temperature;BMP_pressure;BME280_temperature;BME280_humidity;BME280_pressure;Samples;Min_cycle;Max_cycle;Signal;HPM_P1;HPM_P2
2021/09/29 00:01:26;;;;;;;3.73;2.37;;;13.00;99.90;;;;;;5087437;28;20713;-40
2021/09/29 00:03:52;;;;;;;3.87;2.40;;;13.00;99.90;;;;;;5068785;28;20204;-39
2021/09/29 00:06:17;;;;;;;5.27;2.30;;;13.00;99.90;;;;;;5084412;28;20238;-39
2021/09/29 00:08:43;;;;;;;2.17;1.70;;;13.00;99.90;;;;;;5086996;28;20196;-39
2021/09/29 00:11:09;;;;;;;4.93;2.10;;;12.90;99.90;;;;;;5086840;28;20196;-39
2021/09/29 00:13:34;;;;;;;3.00;2.70;;;12.90;99.90;;;;;;5086716;28;20280;-41
2021/09/29 00:16:00;;;;;;;4.30;2.23;;;12.90;99.90;;;;;;5083461;28;20707;-39
2021/09/29 00:18:26;;;;;;;3.63;1.80;;;12.90;99.90;;;;;;5081034;28;20204;-39
2021/09/29 00:20:51;;;;;;;5.80;2.77;;;12.90;99.90;;;;;;5077970;28;20204;-43
2021/09/29 00:23:18;;;;;;;4.33;2.10;;;12.90;99.90;;;;;;5086161;28;20180;-39
2021/09/29 00:25:44;;;;;;;3.00;2.20;;;13.00;99.90;;;;;;5086003;28;20180;-39
2021/09/29 00:28:09;;;;;;;3.50;1.90;;;13.00;99.90;;;;;;5086534;28;20543;-40
2021/09/29 00:30:39;;;;;;;4.43;2.10;;;13.00;99.90;;;;;;5086656;28;20188;-39
2021/09/29 00:33:04;;;;;;;3.00;2.40;;;13.00;99.90;;;;;;5084542;28;20184;-39
2021/09/29 00:35:31;;;;;;;3.83;1.90;;;13.00;99.90;;;;;;5076947;28;20453;-39
2021/09/29 00:37:56;;;;;;;5.33;1.70;;;13.00;99.90;;;;;;5086482;28;20185;-40
2021/09/29 00:40:23;;;;;;;5.13;2.03;;;13.00;99.90;;;;;;5081007;28;20450;-40
2021/09/29 00:42:48;;;;;;;5.87;2.10;;;13.00;99.90;;;;;;5084434;28;20434;-39
2021/09/29 00:45:14;;;;;;;4.03;2.00;;;13.00;99.90;;;;;;5083127;28;20457;-40
2021/09/29 00:47:40;;;;;;;7.07;1.80;;;13.00;99.90;;;;;;5082971;28;20203;-40
2021/09/29 00:50:08;;;;;;;5.10;2.30;;;13.10;99.90;;;;;;5078052;28;20526;-39
2021/09/29 00:52:34;;;;;;;3.23;1.80;;;13.10;99.90;;;;;;5084093;28;20195;-39
2021/09/29 00:55:00;;;;;;;5.10;2.07;;;13.10;99.90;;;;;;5084936;28;20433;-41
2021/09/29 00:57:26;;;;;;;4.77;1.77;;;13.10;99.90;;;;;;5086187;28;20533;-40
2021/09/29 00:59:52;;;;;;;4.17;2.10;;;13.20;99.90;;;;;;5086933;28;20758;-40
2021/09/29 01:02:21;;;;;;;5.50;2.43;;;13.10;99.90;;;;;;5081180;28;20667;-39
2021/09/29 01:04:48;;;;;;;4.20;2.27;;;13.10;99.90;;;;;;5066358;28;21065;-39
2021/09/29 01:07:39;;;;;;;3.50;2.00;;;13.20;99.90;;;;;;5084748;28;20451;-40
2021/09/29 01:10:18;;;;;;;2.77;1.90;;;13.20;99.90;;;;;;5080869;28;20521;-39
2021/09/29 01:13:05;;;;;;;5.33;2.20;;;13.20;99.90;;;;;;5085546;28;20453;-39
2021/09/29 01:15:36;;;;;;;7.07;2.20;;;13.30;99.90;;;;;;5086324;28;20672;-39
2021/09/29 01:18:07;;;;;;;3.47;1.80;;;13.30;99.90;;;;;;5086067;28;20433;-39
2021/09/29 01:20:44;;;;;;;6.23;2.10;;;13.30;99.90;;;;;;5077254;28;20445;-39
2021/09/29 01:23:22;;;;;;;3.60;2.40;;;13.30;99.90;;;;;;5085159;28;20434;-39
2021/09/29 01:25:56;;;;;;;3.70;1.90;;;13.30;99.90;;;;;;5086495;28;20444;-40
2021/09/29 01:28:38;;;;;;;5.70;2.27;;;13.20;99.90;;;;;;5085924;28;20426;-41
2021/09/29 01:31:05;;;;;;;5.10;2.00;;;13.30;99.90;;;;;;5085732;28;20446;-39
2021/09/29 01:33:33;;;;;;;3.13;1.80;;;13.20;99.90;;;;;;5084947;28;20426;-39
2021/09/29 01:36:00;;;;;;;4.67;1.87;;;13.20;99.90;;;;;;5078763;28;20425;-39
2021/09/29 01:38:26;;;;;;;3.53;2.00;;;13.10;99.90;;;;;;5085674;28;20506;-39
2021/09/29 01:40:52;;;;;;;5.03;2.43;;;13.10;99.90;;;;;;5084408;28;21291;-39
2021/09/29 01:43:19;;;;;;;5.00;2.83;;;13.10;99.90;;;;;;5085471;28;20445;-39
2021/09/29 01:45:46;;;;;;;12.07;2.23;;;13.10;99.90;;;;;;5084138;28;20521;-39
2021/09/29 01:48:15;;;;;;;7.43;2.47;;;13.00;99.90;;;;;;5085800;28;20885;-39
2021/09/29 01:50:41;;;;;;;2.80;2.37;;;13.00;99.90;;;;;;5076078;28;20443;-39
2021/09/29 01:53:09;;;;;;;5.10;2.30;;;13.00;99.90;;;;;;5084478;28;20441;-39
2021/09/29 01:55:35;;;;;;;3.37;2.13;;;13.00;99.90;;;;;;5085459;28;20406;-39
2021/09/29 01:58:01;;;;;;;3.37;2.33;;;13.00;99.90;;;;;;5085620;28;20426;-40
2021/09/29 02:00:27;;;;;;;3.57;2.13;;;12.90;99.90;;;;;;5085460;28;20422;-39
2021/09/29 02:02:56;;;;;;;4.80;2.10;;;13.00;99.90;;;;;;5074970;28;20589;-39
2021/09/29 02:05:33;;;;;;;3.30;2.10;;;13.00;99.90;;;;;;5072979;28;20671;-39
2021/09/29 02:08:00;;;;;;;5.20;2.07;;;13.10;99.90;;;;;;5085348;28;21008;-40
2021/09/29 02:10:26;;;;;;;2.50;2.10;;;13.10;99.90;;;;;;5085397;28;20438;-39
2021/09/29 02:12:52;;;;;;;4.87;2.50;;;13.10;99.90;;;;;;5084778;28;20449;-39
2021/09/29 02:15:19;;;;;;;6.47;2.70;;;13.10;99.90;;;;;;5085462;28;20449;-40
2021/09/29 02:17:45;;;;;;;3.40;2.10;;;13.00;99.90;;;;;;5085551;28;20446;-40
2021/09/29 02:20:11;;;;;;;3.67;2.27;;;13.00;99.90;;;;;;5080461;28;21025;-39
2021/09/29 02:22:41;;;;;;;5.93;2.47;;;13.00;99.90;;;;;;5084568;28;20211;-39
2021/09/29 02:25:08;;;;;;;3.97;2.10;;;13.00;99.90;;;;;;5084949;28;20458;-39
2021/09/29 02:27:34;;;;;;;4.00;2.20;;;13.00;99.90;;;;;;5085092;28;20518;-39
2021/09/29 02:29:59;;;;;;;4.03;2.40;;;13.00;99.90;;;;;;5085243;28;20426;-40
2021/09/29 02:32:25;;;;;;;4.30;2.40;;;12.90;99.90;;;;;;5084999;28;20401;-39
2021/09/29 02:34:51;;;;;;;7.50;2.67;;;12.80;99.90;;;;;;5077842;28;20197;-39
2021/09/29 02:37:17;;;;;;;2.97;2.00;;;12.80;99.90;;;;;;5082200;28;20441;-39
2021/09/29 02:39:42;;;;;;;7.30;3.20;;;12.90;99.90;;;;;;5085492;28;20359;-39
2021/09/29 02:42:08;;;;;;;3.93;2.70;;;13.00;99.90;;;;;;5085324;28;20216;-39
2021/09/29 02:44:34;;;;;;;4.83;2.07;;;13.00;99.90;;;;;;5084918;28;20184;-40
2021/09/29 02:47:00;;;;;;;3.10;1.97;;;13.10;99.90;;;;;;5084264;28;20457;-39
2021/09/29 02:49:26;;;;;;;4.67;2.37;;;13.10;99.90;;;;;;5084389;28;20450;-40
2021/09/29 02:51:53;;;;;;;3.37;2.00;;;13.10;99.90;;;;;;5082580;28;20188;-39
2021/09/29 02:54:19;;;;;;;5.20;2.60;;;13.10;99.90;;;;;;5088050;28;20966;-39
2021/09/29 02:56:44;;;;;;;5.80;2.23;;;13.10;99.90;;;;;;5088751;28;20933;-41
2021/09/29 02:59:10;;;;;;;6.07;2.23;;;13.10;99.90;;;;;;5088782;28;20433;-41
2021/09/29 03:01:40;;;;;;;3.60;2.07;;;13.10;99.90;;;;;;5088577;28;20675;-40
2021/09/29 03:04:06;;;;;;;2.73;1.93;;;13.10;99.90;;;;;;5073852;28;20259;-39
2021/09/29 03:06:32;;;;;;;5.47;2.23;;;13.10;99.90;;;;;;5074036;28;20550;-39
2021/09/29 03:08:57;;;;;;;3.70;2.70;;;13.20;99.90;;;;;;5088027;28;20878;-39
2021/09/29 03:11:23;;;;;;;3.67;2.20;;;13.20;99.90;;;;;;5086860;28;20348;-39
2021/09/29 03:13:49;;;;;;;10.27;3.17;;;13.20;99.90;;;;;;5087645;28;20196;-39
2021/09/29 03:16:15;;;;;;;3.03;2.10;;;13.20;99.90;;;;;;5088439;28;20188;-39
2021/09/29 03:18:42;;;;;;;2.43;2.23;;;13.20;99.90;;;;;;5088035;28;20607;-39
2021/09/29 03:21:08;;;;;;;4.87;2.23;;;13.20;99.90;;;;;;5074659;28;20945;-40
2021/09/29 03:23:34;;;;;;;2.90;2.30;;;13.20;99.90;;;;;;5087195;28;20940;-40
2021/09/29 03:25:59;;;;;;;3.50;2.20;;;13.20;99.90;;;;;;5088226;28;20423;-39
2021/09/29 03:28:25;;;;;;;2.93;2.13;;;13.30;99.90;;;;;;5088229;28;20211;-40
2021/09/29 03:30:51;;;;;;;3.30;2.20;;;13.30;99.90;;;;;;5088352;28;20284;-41
2021/09/29 03:33:17;;;;;;;4.20;2.33;;;13.30;99.90;;;;;;5087009;28;20193;-40
2021/09/29 03:35:43;;;;;;;3.70;2.47;;;13.30;99.90;;;;;;5079151;28;20558;-39
2021/09/29 03:38:09;;;;;;;6.73;2.43;;;13.30;99.90;;;;;;5087462;28;20461;-39
2021/09/29 03:40:35;;;;;;;7.40;2.60;;;13.30;99.90;;;;;;5087855;28;20187;-39
2021/09/29 03:43:01;;;;;;;5.27;2.70;;;13.30;99.90;;;;;;5086961;28;20928;-40
2021/09/29 03:45:26;;;;;;;5.37;2.20;;;13.30;99.90;;;;;;5088128;28;20269;-39
2021/09/29 03:47:52;;;;;;;5.13;2.70;;;13.30;99.90;;;;;;5086243;28;20580;-39
2021/09/29 03:50:19;;;;;;;5.80;2.50;;;13.30;99.90;;;;;;5081271;28;20912;-39
2021/09/29 03:52:45;;;;;;;3.37;2.57;;;13.30;99.90;;;;;;5081693;28;20422;-40
2021/09/29 03:55:11;;;;;;;4.80;2.57;;;13.30;99.90;;;;;;5086332;28;20422;-43
2021/09/29 03:57:38;;;;;;;2.33;2.00;;;13.30;99.90;;;;;;5087472;28;20900;-39
2021/09/29 04:00:08;;;;;;;5.90;2.40;;;13.20;99.90;;;;;;5086935;28;20275;-41
2021/09/29 04:02:34;;;;;;;12.97;2.70;;;13.20;99.90;;;;;;5080060;28;20466;-40
2021/09/29 04:04:59;;;;;;;4.80;2.47;;;13.20;99.90;;;;;;5076158;28;20438;-39
2021/09/29 04:07:25;;;;;;;4.57;2.90;;;13.20;99.90;;;;;;5081798;28;20435;-39
2021/09/29 04:09:51;;;;;;;5.83;2.70;;;13.30;99.90;;;;;;5087321;28;20188;-40
2021/09/29 04:12:17;;;;;;;3.67;2.40;;;13.30;99.90;;;;;;5087717;28;20196;-39
2021/09/29 04:14:43;;;;;;;3.30;2.30;;;13.20;99.90;;;;;;5086653;28;20423;-40
2021/09/29 04:17:09;;;;;;;3.30;2.60;;;13.20;99.90;;;;;;5087291;28;20539;-40
2021/09/29 04:19:35;;;;;;;6.00;2.37;;;13.10;99.90;;;;;;5085400;28;20188;-39
2021/09/29 04:22:01;;;;;;;3.40;2.70;;;13.20;99.90;;;;;;5074891;28;20243;-40
2021/09/29 04:24:29;;;;;;;4.33;2.90;;;13.20;99.90;;;;;;5085989;28;20492;-40
2021/09/29 04:26:55;;;;;;;3.63;2.20;;;13.10;99.90;;;;;;5086880;28;20448;-45
2021/09/29 04:29:21;;;;;;;4.10;2.20;;;13.20;99.90;;;;;;5086549;28;20517;-41
2021/09/29 04:31:46;;;;;;;4.33;2.83;;;13.20;99.90;;;;;;5086753;28;20529;-39
2021/09/29 04:34:12;;;;;;;7.70;2.80;;;13.20;99.90;;;;;;5086338;28;20202;-40
2021/09/29 04:36:37;;;;;;;6.80;2.77;;;13.30;99.90;;;;;;5076157;28;20196;-40
2021/09/29 04:39:04;;;;;;;7.33;2.80;;;13.40;99.90;;;;;;5086961;28;20191;-40
2021/09/29 04:41:29;;;;;;;3.77;2.60;;;13.40;99.90;;;;;;5086270;28;20609;-39
2021/09/29 04:43:55;;;;;;;4.67;2.53;;;13.40;99.90;;;;;;5085757;28;20428;-39
2021/09/29 04:46:21;;;;;;;5.17;2.87;;;13.40;99.90;;;;;;5085763;28;20188;-39
2021/09/29 04:48:46;;;;;;;7.80;2.63;;;13.40;99.90;;;;;;5086598;28;20422;-40
2021/09/29 04:51:12;;;;;;;3.87;2.80;;;13.30;99.90;;;;;;5077046;28;20189;-39
2021/09/29 04:53:38;;;;;;;3.53;2.10;;;13.30;99.90;;;;;;5085790;28;20619;-39
2021/09/29 04:56:04;;;;;;;4.23;2.87;;;13.30;99.90;;;;;;5086298;28;20245;-39
2021/09/29 04:58:30;;;;;;;5.00;3.00;;;13.30;99.90;;;;;;5085978;28;20434;-41
2021/09/29 05:00:55;;;;;;;3.37;2.20;;;13.30;99.90;;;;;;5086518;28;20994;-40
2021/09/29 05:03:22;;;;;;;3.30;2.47;;;13.30;99.90;;;;;;5085493;28;20256;-42
2021/09/29 05:05:48;;;;;;;4.10;2.63;;;13.30;99.90;;;;;;5080087;28;20528;-39
2021/09/29 05:08:23;;;;;;;4.20;2.50;;;13.30;99.90;;;;;;5082482;28;20677;-40
2021/09/29 05:10:59;;;;;;;5.70;2.30;;;13.30;99.90;;;;;;5085503;28;20562;-39
2021/09/29 05:13:30;;;;;;;4.07;3.00;;;13.30;99.90;;;;;;5085268;28;20923;-39
2021/09/29 05:15:58;;;;;;;6.47;2.73;;;13.30;99.90;;;;;;5086165;28;20781;-40
2021/09/29 05:18:24;;;;;;;3.97;3.00;;;13.30;99.90;;;;;;5085882;28;20418;-40
2021/09/29 05:20:50;;;;;;;6.57;3.50;;;13.30;99.90;;;;;;5080096;28;20446;-39
2021/09/29 05:23:16;;;;;;;3.90;2.83;;;13.30;99.90;;;;;;5082227;28;20972;-39
2021/09/29 05:25:42;;;;;;;4.90;2.83;;;13.30;99.90;;;;;;5085728;28;20430;-39
2021/09/29 05:28:11;;;;;;;6.87;2.73;;;13.20;99.90;;;;;;5085897;28;20192;-39
2021/09/29 05:30:37;;;;;;;7.73;3.30;;;13.20;99.90;;;;;;5085973;28;21101;-39
2021/09/29 05:33:02;;;;;;;3.30;3.00;;;13.10;99.90;;;;;;5085209;28;20430;-40
2021/09/29 05:35:28;;;;;;;3.10;2.67;;;13.10;99.90;;;;;;5083524;28;20192;-40
2021/09/29 05:37:54;;;;;;;3.90;3.00;;;13.10;99.90;;;;;;5075487;28;20274;-39
2021/09/29 05:40:20;;;;;;;5.20;3.00;;;13.20;99.90;;;;;;5085299;28;20232;-39
2021/09/29 05:42:46;;;;;;;6.33;3.57;;;13.20;99.90;;;;;;5085092;28;21197;-39
2021/09/29 05:45:12;;;;;;;3.03;2.60;;;13.20;99.90;;;;;;5085843;28;20421;-39
2021/09/29 05:47:38;;;;;;;4.10;2.80;;;13.20;99.90;;;;;;5084791;28;20184;-41
2021/09/29 05:50:04;;;;;;;5.73;3.60;;;13.10;99.90;;;;;;5085662;28;20314;-40
2021/09/29 05:52:30;;;;;;;2.90;2.60;;;13.10;99.90;;;;;;5072395;28;20188;-39
2021/09/29 05:54:56;;;;;;;5.33;3.30;;;13.10;99.90;;;;;;5084904;28;20483;-39
2021/09/29 05:57:21;;;;;;;4.30;2.50;;;13.20;99.90;;;;;;5085959;28;20188;-39
2021/09/29 05:59:48;;;;;;;5.77;3.20;;;13.10;99.90;;;;;;5085439;28;20304;-40
2021/09/29 06:02:13;;;;;;;5.20;3.30;;;13.10;99.90;;;;;;5080938;28;20209;-40
2021/09/29 06:04:41;;;;;;;3.80;3.00;;;13.20;99.90;;;;;;5075865;28;20422;-40
2021/09/29 06:07:09;;;;;;;4.73;2.47;;;13.20;99.90;;;;;;5076993;28;20188;-39
2021/09/29 06:09:37;;;;;;;5.17;3.37;;;13.20;99.90;;;;;;5085722;28;20767;-40
2021/09/29 06:12:03;;;;;;;4.13;3.03;;;13.20;99.90;;;;;;5085553;28;20726;-39
2021/09/29 06:14:28;;;;;;;5.30;3.00;;;13.20;99.90;;;;;;5085110;28;20485;-40
2021/09/29 06:17:00;;;;;;;5.80;3.00;;;13.20;99.90;;;;;;5085019;28;21199;-40
2021/09/29 06:19:26;;;;;;;4.33;2.60;;;13.30;99.90;;;;;;5084310;28;20188;-40
2021/09/29 06:21:51;;;;;;;4.40;2.60;;;13.30;99.90;;;;;;5076556;28;20879;-39
2021/09/29 06:24:17;;;;;;;4.07;3.13;;;13.40;99.90;;;;;;5085886;28;20424;-39
2021/09/29 06:26:43;;;;;;;5.00;2.30;;;13.50;99.90;;;;;;5089121;28;20208;-40
2021/09/29 06:29:08;;;;;;;5.43;2.87;;;13.50;99.90;;;;;;5089191;28;20197;-40
2021/09/29 06:31:34;;;;;;;4.53;2.70;;;13.70;99.90;;;;;;5088841;28;20663;-39
2021/09/29 06:34:00;;;;;;;6.83;2.40;;;13.70;99.90;;;;;;5088782;28;20410;-39
2021/09/29 06:36:26;;;;;;;5.00;2.63;;;13.80;99.90;;;;;;5084132;28;20227;-40
2021/09/29 06:38:52;;;;;;;5.83;2.80;;;13.90;99.90;;;;;;5084703;28;20277;-39
2021/09/29 06:41:17;;;;;;;2.67;2.30;;;13.90;99.90;;;;;;5088965;28;20211;-39
2021/09/29 06:43:43;;;;;;;5.40;2.80;;;14.00;99.90;;;;;;5088397;28;20410;-39
2021/09/29 06:46:09;;;;;;;5.70;2.80;;;14.00;99.90;;;;;;5088008;28;20296;-39
2021/09/29 06:48:34;;;;;;;2.83;2.50;;;14.10;99.90;;;;;;5088820;28;20245;-40
2021/09/29 06:51:00;;;;;;;5.50;2.60;;;14.10;99.90;;;;;;5086077;28;20241;-40
2021/09/29 06:53:26;;;;;;;5.10;2.13;;;14.20;99.90;;;;;;5079779;28;20902;-39
2021/09/29 06:55:52;;;;;;;5.07;2.30;;;14.20;99.90;;;;;;5088513;28;20184;-39
2021/09/29 06:58:18;;;;;;;3.10;2.20;;;14.10;99.90;;;;;;5088727;28;20250;-40
2021/09/29 07:00:44;;;;;;;3.40;2.33;;;14.20;99.90;;;;;;5088423;28;20193;-40
2021/09/29 07:03:12;;;;;;;4.03;2.40;;;14.20;99.90;;;;;;5075761;28;20426;-40
2021/09/29 07:05:37;;;;;;;4.47;2.60;;;14.20;99.90;;;;;;5086996;28;20642;-40
2021/09/29 07:08:03;;;;;;;5.03;2.67;;;14.20;99.90;;;;;;5079676;28;21141;-40
2021/09/29 07:10:30;;;;;;;4.17;2.33;;;14.10;99.90;;;;;;5088139;28;20315;-39
2021/09/29 07:12:57;;;;;;;4.63;2.57;;;14.10;99.90;;;;;;5087578;28;20430;-40
2021/09/29 07:15:24;;;;;;;3.57;2.33;;;14.20;99.90;;;;;;5088098;28;20426;-39
2021/09/29 07:17:56;;;;;;;3.60;2.40;;;14.20;99.90;;;;;;5088036;28;20968;-39
2021/09/29 07:20:22;;;;;;;3.77;2.17;;;14.20;99.90;;;;;;5086649;28;20495;-39
2021/09/29 07:22:47;;;;;;;4.60;2.70;;;14.20;99.90;;;;;;5076800;28;20478;-39
2021/09/29 07:25:13;;;;;;;3.80;2.63;;;14.20;99.90;;;;;;5087889;28;20191;-39
2021/09/29 07:27:39;;;;;;;4.10;2.33;;;14.20;99.90;;;;;;5088069;28;20180;-39
2021/09/29 07:30:05;;;;;;;3.60;2.20;;;14.20;99.90;;;;;;5086774;28;20188;-40
2021/09/29 07:32:31;;;;;;;6.67;2.77;;;14.20;99.90;;;;;;5088080;28;20180;-39
2021/09/29 07:34:56;;;;;;;4.00;2.23;;;14.20;99.90;;;;;;5084762;28;20472;-40
2021/09/29 07:37:22;;;;;;;3.63;2.40;;;14.10;99.90;;;;;;5077774;28;20189;-39
2021/09/29 07:39:48;;;;;;;4.30;2.20;;;14.10;99.90;;;;;;5087760;28;20260;-40
2021/09/29 07:42:14;;;;;;;4.00;2.40;;;14.00;99.90;;;;;;5087669;28;20257;-39
2021/09/29 07:44:40;;;;;;;4.40;2.83;;;14.10;99.90;;;;;;5087106;28;20200;-39
2021/09/29 07:47:06;;;;;;;7.03;2.57;;;14.10;99.90;;;;;;5086103;28;20469;-39
2021/09/29 07:49:32;;;;;;;5.60;2.53;;;14.10;99.90;;;;;;5088067;28;20446;-40
2021/09/29 07:51:58;;;;;;;5.17;2.60;;;14.10;99.90;;;;;;5080711;28;20208;-40
2021/09/29 07:54:28;;;;;;;3.77;2.30;;;14.10;99.90;;;;;;5085414;28;20421;-39
2021/09/29 07:56:54;;;;;;;3.80;2.60;;;14.10;99.90;;;;;;5087438;28;20457;-39
2021/09/29 07:59:22;;;;;;;3.67;2.40;;;14.20;99.90;;;;;;5087722;28;20799;-40
2021/09/29 08:01:49;;;;;;;3.33;2.50;;;14.10;99.90;;;;;;5086926;28;20494;-40
2021/09/29 08:04:19;;;;;;;3.00;2.37;;;14.10;99.90;;;;;;5087267;28;20789;-40
2021/09/29 08:06:44;;;;;;;7.33;2.43;;;14.10;99.90;;;;;;5082536;28;20431;-40
2021/09/29 08:09:10;;;;;;;3.37;3.07;;;14.10;99.90;;;;;;5076348;28;20790;-40
2021/09/29 08:11:36;;;;;;;6.40;2.73;;;14.10;99.90;;;;;;5087006;28;20187;-40
2021/09/29 08:14:01;;;;;;;4.10;2.57;;;14.20;99.90;;;;;;5086585;28;20237;-40
2021/09/29 08:16:27;;;;;;;6.07;2.30;;;14.20;99.90;;;;;;5086801;28;20191;-40
2021/09/29 08:18:53;;;;;;;3.13;2.80;;;14.10;99.90;;;;;;5087035;28;20188;-39
2021/09/29 08:21:23;;;;;;;4.80;2.57;;;14.10;99.90;;;;;;5086991;28;20714;-39
2021/09/29 08:23:52;;;;;;;6.63;3.17;;;14.10;99.90;;;;;;5076031;28;20192;-39
2021/09/29 08:29:13;;;;;;;7.10;3.10;;;14.10;99.90;;;;;;5086504;28;20785;-39
2021/09/29 08:32:28;;;;;;;4.60;2.80;;;14.10;99.90;;;;;;5087055;28;20423;-39
2021/09/29 08:34:50;;;;;;;3.83;3.50;;;14.10;99.90;;;;;;5088867;28;20426;-39
2021/09/29 08:42:20;;;;;;;5.97;3.20;;;14.00;99.90;;;;;;5086397;28;20450;-40
2021/09/29 08:44:53;;;;;;;3.10;2.47;;;14.00;99.90;;;;;;5073327;28;20522;-39
2021/09/29 08:55:32;;;;;;;3.80;2.93;;;14.00;99.90;;;;;;5081960;28;20430;-39
2021/09/29 09:17:35;;;;;;;4.00;2.83;;;13.80;99.90;;;;;;5086018;28;20446;-39
2021/09/29 09:20:21;;;;;;;2.80;2.50;;;13.80;99.90;;;;;;5086079;28;20434;-41
2021/09/29 09:22:55;;;;;;;4.10;3.00;;;13.90;99.90;;;;;;5078288;28;20998;-40
2021/09/29 09:25:39;;;;;;;4.00;2.40;;;13.90;99.90;;;;;;5084926;28;20428;-40
2021/09/29 09:28:14;;;;;;;5.13;2.50;;;14.00;99.90;;;;;;5085711;28;20438;-40
2021/09/29 09:30:40;;;;;;;4.70;2.77;;;14.00;99.90;;;;;;5086049;28;20422;-40
2021/09/29 09:33:06;;;;;;;4.20;2.60;;;14.00;99.90;;;;;;5085389;28;20441;-39
2021/09/29 09:35:46;;;;;;;2.70;2.50;;;14.00;99.90;;;;;;5085921;28;20810;-39
2021/09/29 09:38:20;;;;;;;4.27;2.53;;;14.00;99.90;;;;;;5076517;28;20450;-40
2021/09/29 09:40:52;;;;;;;4.27;2.50;;;14.00;99.90;;;;;;5074846;28;20423;-39
2021/09/29 09:43:18;;;;;;;3.53;2.53;;;14.00;99.90;;;;;;5085359;28;20523;-39
2021/09/29 09:45:46;;;;;;;2.70;2.50;;;13.90;99.90;;;;;;5084171;28;20418;-39
2021/09/29 09:48:23;;;;;;;5.70;2.43;;;13.90;99.90;;;;;;5085241;28;20422;-41
2021/09/29 09:50:53;;;;;;;3.73;2.40;;;14.00;99.90;;;;;;5085699;28;20773;-39
2021/09/29 09:53:20;;;;;;;4.27;2.33;;;14.00;99.90;;;;;;5073962;28;20463;-39
2021/09/29 09:55:46;;;;;;;3.37;2.03;;;14.00;99.90;;;;;;5085510;28;20414;-40
2021/09/29 09:58:11;;;;;;;3.40;2.57;;;14.00;99.90;;;;;;5088007;28;20475;-39
2021/09/29 10:00:37;;;;;;;5.87;2.77;;;14.00;99.90;;;;;;5089706;28;20602;-40
2021/09/29 10:03:04;;;;;;;4.00;3.03;;;14.00;99.90;;;;;;5077810;28;20247;-39
2021/09/29 10:05:30;;;;;;;3.33;2.73;;;14.00;99.90;;;;;;5088020;28;20765;-39
2021/09/29 10:07:58;;;;;;;3.40;2.13;;;14.00;99.90;;;;;;5082761;28;20451;-41
2021/09/29 10:10:50;;;;;;;3.70;2.30;;;14.00;99.90;;;;;;5079881;28;20489;-39
2021/09/29 10:27:50;;;;;;;2.30;1.93;;;13.80;99.90;;;;;;5083402;28;20415;-41
2021/09/29 10:30:24;;;;;;;2.47;1.63;;;13.80;99.90;;;;;;5089290;28;20506;-39
2021/09/29 10:32:51;;;;;;;2.37;1.73;;;13.90;99.90;;;;;;5088807;28;20430;-40
2021/09/29 10:43:29;;;;;;;2.47;1.30;;;13.90;99.90;;;;;;5084954;28;20429;-39
2021/09/29 10:46:06;;;;;;;1.23;1.03;;;13.90;99.90;;;;;;5087250;28;20441;-39
2021/09/29 11:06:03;;;;;;;1.10;1.00;;;13.80;99.90;;;;;;5089831;28;20921;-39
2021/09/29 11:12:02;;;;;;;1.60;0.60;;;13.80;99.90;;;;;;5081909;28;20425;-42
2021/09/29 11:30:43;;;;;;;2.00;1.50;;;13.60;99.90;;;;;;5088367;28;20609;-39
2021/09/29 11:33:21;;;;;;;1.90;1.33;;;13.60;99.90;;;;;;5087408;28;20878;-39
2021/09/29 12:09:41;;;;;;;3.30;1.50;;;13.80;99.90;;;;;;5081275;28;20507;-39
2021/09/29 12:12:17;;;;;;;1.80;1.70;;;13.70;99.90;;;;;;5083013;28;20418;-40
2021/09/29 12:14:51;;;;;;;2.83;2.43;;;13.70;99.90;;;;;;5080544;28;20422;-39
2021/09/29 12:17:25;;;;;;;2.93;2.20;;;13.60;99.90;;;;;;5086929;28;20960;-40
2021/09/29 12:20:10;;;;;;;1.90;1.80;;;13.60;99.90;;;;;;5086867;28;20855;-39
2021/09/29 12:22:41;;;;;;;1.70;1.60;;;13.50;99.90;;;;;;5086854;28;20505;-40
2021/09/29 12:25:14;;;;;;;3.07;1.87;;;13.50;99.90;;;;;;5076953;28;20432;-39
2021/09/29 12:27:48;;;;;;;2.20;2.00;;;13.40;99.90;;;;;;5076910;28;20707;-39
2021/09/29 12:30:42;;;;;;;2.07;1.77;;;13.40;99.90;;;;;;5086929;28;20484;-39
2021/09/29 12:33:15;;;;;;;1.70;1.30;;;13.40;99.90;;;;;;5085669;28;20427;-39
2021/09/29 12:35:54;;;;;;;2.50;2.30;;;13.40;99.90;;;;;;5087065;28;20936;-40
2021/09/29 12:38:21;;;;;;;4.73;2.40;;;13.40;99.90;;;;;;5086969;28;20433;-40
2021/09/29 12:40:50;;;;;;;3.73;2.10;;;13.60;99.90;;;;;;5084547;28;20438;-39
2021/09/29 12:43:18;;;;;;;2.63;2.43;;;13.70;99.90;;;;;;5085480;28;20933;-39
2021/09/29 12:45:47;;;;;;;3.53;2.70;;;13.80;99.90;;;;;;5085052;28;20464;-40
2021/09/29 12:48:14;;;;;;;3.10;2.90;;;13.80;99.90;;;;;;5086328;28;20484;-39
2021/09/29 12:53:33;;;;;;;6.30;4.20;;;13.90;99.90;;;;;;5085392;28;20410;-39
2021/09/29 12:58:29;;;;;;;3.53;3.23;;;14.20;99.90;;;;;;5081419;28;20564;-39
2021/09/29 13:00:57;;;;;;;3.70;3.40;;;14.20;99.90;;;;;;5085852;28;20777;-40
2021/09/29 13:03:22;;;;;;;3.77;3.30;;;14.20;99.90;;;;;;5085235;28;20418;-40
2021/09/29 13:05:48;;;;;;;4.87;3.47;;;14.20;99.90;;;;;;5086913;28;20426;-41
2021/09/29 13:08:15;;;;;;;4.20;3.80;;;14.20;99.90;;;;;;5085778;28;20200;-40
2021/09/29 13:10:41;;;;;;;3.60;3.30;;;14.20;99.90;;;;;;5076416;28;20547;-40
2021/09/29 13:13:10;;;;;;;3.00;2.80;;;14.20;99.90;;;;;;5081106;28;20591;-40
2021/09/29 13:15:40;;;;;;;2.47;2.27;;;14.20;99.90;;;;;;5086114;28;20430;-39
2021/09/29 13:18:15;;;;;;;3.40;2.60;;;14.20;99.90;;;;;;5086031;28;20796;-41
2021/09/29 13:20:43;;;;;;;3.00;2.43;;;14.00;99.90;;;;;;5085693;28;20436;-40
2021/09/29 13:23:14;;;;;;;5.50;2.63;;;14.00;99.90;;;;;;5085355;28;20975;-40
2021/09/29 13:36:34;;;;;;;2.57;1.53;;;13.00;99.90;;;;;;5085687;28;20418;-40
2021/09/29 13:39:04;;;;;;;1.33;0.87;;;12.90;99.90;;;;;;5086509;28;20419;-39
2021/09/29 13:41:30;;;;;;;2.30;0.90;;;12.80;99.90;;;;;;5078262;28;20556;-40
2021/09/29 13:43:55;;;;;;;1.80;0.90;;;12.70;99.90;;;;;;5085211;28;20493;-39
2021/09/29 13:46:21;;;;;;;2.40;1.30;;;12.60;99.90;;;;;;5084058;28;20187;-40
2021/09/29 13:48:48;;;;;;;1.30;1.20;;;12.50;99.90;;;;;;5085818;28;20184;-39
2021/09/29 13:51:14;;;;;;;0.90;0.90;;;12.30;99.90;;;;;;5085593;28;20566;-39
2021/09/29 13:53:39;;;;;;;1.60;1.00;;;12.20;99.90;;;;;;5085103;28;20434;-40
2021/09/29 13:56:08;;;;;;;1.90;1.20;;;12.10;99.90;;;;;;5071065;28;20731;-40
2021/09/29 14:30:33;;;;;;;2.80;1.07;;;13.30;99.90;;;;;;5085202;28;20414;-39
2021/09/29 14:33:21;;;;;;;1.80;1.27;;;13.20;99.90;;;;;;5084881;28;20433;-41
2021/09/29 14:35:47;;;;;;;2.37;1.00;;;13.30;99.90;;;;;;5085606;28;20430;-40
2021/09/29 14:38:13;;;;;;;1.20;0.97;;;13.20;99.90;;;;;;5085658;28;20487;-39
2021/09/29 14:40:38;;;;;;;1.87;1.10;;;13.10;99.90;;;;;;5081358;28;20192;-40
2021/09/29 14:43:05;;;;;;;1.97;1.40;;;13.20;99.90;;;;;;5084246;28;20678;-39
2021/09/29 14:45:31;;;;;;;1.87;1.03;;;13.20;99.90;;;;;;5088849;28;20419;-40
2021/09/29 14:47:57;;;;;;;1.83;1.40;;;13.30;99.90;;;;;;5073750;28;20679;-40
2021/09/29 14:50:28;;;;;;;1.20;0.90;;;13.30;99.90;;;;;;5088808;28;20847;-39
2021/09/29 14:52:58;;;;;;;3.67;1.23;;;13.30;99.90;;;;;;5088411;28;20200;-39
2021/09/29 14:55:25;;;;;;;4.10;1.60;;;13.40;99.90;;;;;;5086964;28;20434;-39
2021/09/29 14:57:51;;;;;;;1.10;1.00;;;13.40;99.90;;;;;;5077358;28;20431;-39
2021/09/29 15:00:18;;;;;;;4.23;1.40;;;13.50;99.90;;;;;;5088514;28;20438;-39
2021/09/29 15:02:44;;;;;;;1.20;1.10;;;13.60;99.90;;;;;;5078856;28;20284;-40
2021/09/29 15:05:10;;;;;;;1.57;1.17;;;13.60;99.90;;;;;;5082673;28;20483;-40
2021/09/29 15:07:36;;;;;;;1.73;1.00;;;13.60;99.90;;;;;;5087013;28;20855;-40
2021/09/29 15:10:02;;;;;;;2.43;1.33;;;13.60;99.90;;;;;;5088546;28;20206;-40
2021/09/29 15:12:28;;;;;;;3.20;1.53;;;13.60;99.90;;;;;;5078430;28;20185;-39
2021/09/29 15:15:30;;;;;;;1.83;1.33;;;13.60;99.90;;;;;;5087619;28;20429;-39
2021/09/29 15:17:55;;;;;;;2.53;1.40;;;13.50;99.90;;;;;;5087818;28;20441;-39
2021/09/29 15:30:47;;;;;;;3.00;1.40;;;13.20;99.90;;;;;;5088171;28;20429;-39
2021/09/29 15:47:01;;;;;;;2.60;1.10;;;13.20;99.90;;;;;;5084854;28;20422;-39
2021/09/29 15:55:21;;;;;;;2.20;0.93;;;13.40;99.90;;;;;;5086424;28;20463;-39
2021/09/29 15:58:23;;;;;;;1.87;1.10;;;13.30;99.90;;;;;;5077573;28;20429;-39
2021/09/29 16:01:00;;;;;;;4.40;1.60;;;13.30;99.90;;;;;;5085042;28;20479;-39
2021/09/29 16:04:03;;;;;;;1.07;0.80;;;13.30;99.90;;;;;;5073366;28;20558;-39
2021/09/29 16:17:17;;;;;;;1.83;1.00;;;13.40;99.90;;;;;;5083738;28;20928;-39
2021/09/29 16:22:56;;;;;;;3.13;1.40;;;13.20;99.90;;;;;;5063798;28;20872;-39
2021/09/29 16:36:09;;;;;;;4.20;1.37;;;13.10;99.90;;;;;;5087110;28;20450;-39
2021/09/29 16:38:37;;;;;;;2.03;1.10;;;13.10;99.90;;;;;;5086584;28;20418;-39
2021/09/29 16:41:03;;;;;;;2.53;1.20;;;13.00;99.90;;;;;;5084778;28;20422;-39
2021/09/29 16:43:28;;;;;;;2.63;1.47;;;13.00;99.90;;;;;;5078056;28;20787;-41